Kezdőlap
METAR-TAF:

METAR-TAF

Repülőterek :

Gwadar, Pakisztán

földrajzi szélesség: 25-13-59N, földrajzi hosszúság: 062-19-46E, magasság: 29 m

METAR: hiányzik

Idő: 01:25 (20:25 UTC)

Előrejelzés

A jelentés 4 órával és 55 perccel ezelõtt készült, 15:30 UTC
Az előrejelzés 22-én 18 óra UTC és 23-én 18 óra UTC között érvényes
Észak-északnyugati szél 5 kt
Látótávolság: 4000 m
Száraz légköri homály
23-én 00 óra UTC és 23-én 04 óra UTC között ideiglenes
Különbözõ irányokból fújó szél 3 kt
Látótávolság: 3000 m
Száraz légköri homály
23-én 0900 órától UTC szerint
Délnyugati szél 5 kt széllökések: 15 kt
Látótávolság: 6000 m

TAF: OPGD 221530Z 2218/2318 34005KT 4000 HZ NSC TEMPO 2300/2304 VRB03KT 3000 HZ NSC FM230900 23005G15KT 6000 NSC

Meteorológiai megfigyelések és előrejelzések több, mint 4000 repülőtéren (METAR és TAF jelentéseket).

A térképen piros és sárga pontok jelzik az elérhető meteorológiai állomásokat.

Mozgassa az egeret a pont fölött, hogy megjelenjen az állomás neve.

Azután kattintson az időjárási megfigyelések és előrejelzések megtekintéséhez.

A térkép megváltoztatása: kattintson a fekete keresztel jelölt zöld gombra ráközelítéshez, a vonallal jelölt zöld gombra távolításhoz, vagy a zöld nyilakra a szomszédos térképek eléréséhez.


METAR-TAF: